Richmond Heights, Missouri
Current Conditions -  °F | °C
As of 6:51 AM on Saturday 25 Oct 2014 (Local Time) from KSTL Reporting Station
Haze Haze  
Wind Chill: 58°   Ceiling: Unl
Heat Index: 58°   Visibility: 5mi
Dew Point: 55°   Wind: 5mph
Humidity: 90%   Direction: 230°SW
Pressure: 30.01"   Gusts: NA
Location:  38.63°N, 90.32°W
Report Text: KSTL 251151Z 23004KT 5SM BR FEW250 14/13 A3001 RMK AO2 SLP157 T01440128 10178 20144 51008
Loading
Personal Weather Stations






























Interactive Weather Map New forecast layout! Learn more

10-Day Weather Forecast

Advertisements
Track Severe Weather on mobile